createdAt,value
2022-08-29T00:01:05.572Z,101425.00
2022-08-29T00:03:32.787Z,101429.00
2022-08-29T00:05:59.588Z,101432.00
2022-08-29T00:08:27.144Z,101440.00
2022-08-29T00:10:54.032Z,101425.00
2022-08-29T00:13:21.991Z,101426.00
2022-08-29T00:15:50.464Z,101428.00
2022-08-29T00:18:19.564Z,101437.00
2022-08-29T00:20:47.042Z,101423.00
2022-08-29T00:23:14.129Z,101425.00
2022-08-29T00:25:40.945Z,101420.00
2022-08-29T00:28:07.908Z,101430.00
2022-08-29T00:30:35.916Z,101413.00
2022-08-29T00:33:03.515Z,101417.00
2022-08-29T00:35:34.425Z,101421.00
2022-08-29T00:38:02.338Z,101414.00
2022-08-29T00:40:56.461Z,101412.00
2022-08-29T00:43:27.178Z,101409.00
2022-08-29T00:46:09.162Z,101412.00
2022-08-29T00:48:39.124Z,101413.00
2022-08-29T00:51:08.905Z,101420.00
2022-08-29T00:53:39.685Z,101419.00
2022-08-29T00:56:08.431Z,101416.00
2022-08-29T00:58:47.589Z,101416.00
2022-08-29T01:01:14.499Z,101418.00
2022-08-29T01:03:43.093Z,101412.00
2022-08-29T01:06:11.297Z,101419.00
2022-08-29T01:08:38.117Z,101422.00
2022-08-29T01:11:24.185Z,101419.00
2022-08-29T01:13:52.874Z,101421.00
2022-08-29T01:16:20.885Z,101412.00
2022-08-29T01:18:51.143Z,101410.00
2022-08-29T01:21:36.249Z,101420.00
2022-08-29T01:24:15.238Z,101424.00
2022-08-29T01:26:44.508Z,101423.00
2022-08-29T01:29:11.416Z,101427.00
2022-08-29T01:31:56.973Z,101427.00
2022-08-29T01:34:32.406Z,101430.00
2022-08-29T01:37:01.921Z,101436.00
2022-08-29T01:39:31.995Z,101416.00
2022-08-29T01:42:03.909Z,101418.00
2022-08-29T01:44:32.549Z,101407.00
2022-08-29T01:47:02.782Z,101420.00
2022-08-29T01:49:34.852Z,101412.00
2022-08-29T01:52:05.721Z,101406.00
2022-08-29T01:54:32.848Z,101410.00
2022-08-29T01:57:01.439Z,101407.00
2022-08-29T01:59:29.866Z,101410.00
2022-08-29T02:02:02.302Z,101415.00
2022-08-29T02:04:29.287Z,101422.00
2022-08-29T02:06:56.246Z,101422.00
2022-08-29T02:09:24.308Z,101419.00
2022-08-29T02:11:52.460Z,101423.00
2022-08-29T02:14:19.918Z,101424.00
2022-08-29T02:16:47.804Z,101434.00
2022-08-29T02:19:15.526Z,101436.00
2022-08-29T02:21:42.799Z,101439.00
2022-08-29T02:24:24.288Z,101447.00
2022-08-29T02:26:53.029Z,101441.00
2022-08-29T02:29:19.970Z,101451.00
2022-08-29T02:31:46.990Z,101449.00
2022-08-29T02:34:14.140Z,101449.00
2022-08-29T02:36:41.537Z,101456.00
2022-08-29T02:39:08.945Z,101452.00
2022-08-29T02:41:36.183Z,101459.00
2022-08-29T02:44:05.010Z,101460.00
2022-08-29T02:46:32.285Z,101466.00
2022-08-29T02:49:00.904Z,101466.00
2022-08-29T02:51:32.166Z,101461.00
2022-08-29T02:53:59.991Z,101456.00
2022-08-29T02:56:27.470Z,101458.00
2022-08-29T02:58:54.297Z,101462.00
2022-08-29T03:01:23.047Z,101457.00
2022-08-29T03:03:50.810Z,101466.00
2022-08-29T03:06:19.049Z,101458.00
2022-08-29T03:08:46.185Z,101456.00
2022-08-29T03:11:13.980Z,101452.00
2022-08-29T03:13:40.954Z,101449.00
2022-08-29T03:16:08.983Z,101455.00
2022-08-29T03:18:36.168Z,101453.00
2022-08-29T03:21:02.963Z,101462.00
2022-08-29T03:23:29.803Z,101454.00
2022-08-29T03:25:56.678Z,101452.00
2022-08-29T03:28:23.471Z,101467.00
2022-08-29T03:30:50.372Z,101454.00
2022-08-29T03:33:17.742Z,101465.00
2022-08-29T03:35:44.577Z,101465.00
2022-08-29T03:38:11.505Z,101464.00
2022-08-29T03:40:41.432Z,101470.00
2022-08-29T03:43:09.471Z,101466.00
2022-08-29T03:45:36.617Z,101470.00
2022-08-29T03:48:03.963Z,101461.00
2022-08-29T03:50:30.897Z,101470.00
2022-08-29T03:52:57.734Z,101468.00
2022-08-29T03:55:24.568Z,101463.00
2022-08-29T03:57:51.430Z,101483.00
2022-08-29T04:00:19.789Z,101487.00
2022-08-29T04:02:47.787Z,101478.00
2022-08-29T04:05:18.118Z,101481.00
2022-08-29T04:07:53.935Z,101480.00
2022-08-29T04:10:30.850Z,101483.00
2022-08-29T04:12:58.523Z,101485.00
2022-08-29T04:15:26.582Z,101482.00
2022-08-29T04:17:55.318Z,101494.00
2022-08-29T04:20:25.678Z,101488.00
2022-08-29T04:22:54.575Z,101497.00
2022-08-29T04:25:23.016Z,101505.00
2022-08-29T04:27:49.866Z,101497.00
2022-08-29T04:30:19.075Z,101508.00
2022-08-29T04:32:45.833Z,101502.00
2022-08-29T04:35:14.329Z,101505.00
2022-08-29T04:37:42.207Z,101503.00
2022-08-29T04:40:11.072Z,101511.00
2022-08-29T04:42:38.625Z,101518.00
2022-08-29T04:45:07.191Z,101508.00
2022-08-29T04:47:37.365Z,101513.00
2022-08-29T04:50:05.144Z,101505.00
2022-08-29T04:52:32.048Z,101511.00
2022-08-29T04:55:00.105Z,101506.00
2022-08-29T04:57:26.929Z,101504.00
2022-08-29T04:59:58.860Z,101502.00
2022-08-29T05:02:27.697Z,101509.00
2022-08-29T05:04:56.610Z,101506.00
2022-08-29T05:07:25.791Z,101515.00
2022-08-29T05:09:58.750Z,101519.00
2022-08-29T05:12:27.827Z,101527.00
2022-08-29T05:14:54.756Z,101519.00
2022-08-29T05:17:22.308Z,101527.00
2022-08-29T05:19:49.457Z,101518.00
2022-08-29T05:22:17.232Z,101526.00
2022-08-29T05:24:44.434Z,101535.00
2022-08-29T05:27:17.161Z,101535.00
2022-08-29T05:29:45.749Z,101541.00
2022-08-29T05:32:18.740Z,101550.00
2022-08-29T05:34:46.579Z,101550.00
2022-08-29T05:37:16.582Z,101541.00
2022-08-29T05:39:43.591Z,101545.00
2022-08-29T05:42:11.958Z,101553.00
2022-08-29T05:44:39.483Z,101554.00
2022-08-29T05:47:11.008Z,101567.00
2022-08-29T05:49:43.452Z,101566.00
2022-08-29T05:52:11.317Z,101574.00
2022-08-29T05:54:41.361Z,101564.00
2022-08-29T05:57:09.705Z,101570.00
2022-08-29T05:59:37.426Z,101573.00
2022-08-29T06:02:05.967Z,101578.00
2022-08-29T06:04:32.794Z,101572.00
2022-08-29T06:06:59.774Z,101568.00
2022-08-29T06:09:26.899Z,101569.00
2022-08-29T06:11:53.742Z,101574.00
2022-08-29T06:14:20.822Z,101573.00
2022-08-29T06:16:47.907Z,101572.00
2022-08-29T06:19:15.005Z,101578.00
2022-08-29T06:21:42.127Z,101573.00
2022-08-29T06:24:09.443Z,101578.00
2022-08-29T06:26:36.487Z,101574.00
2022-08-29T06:29:06.576Z,101581.00
2022-08-29T06:31:33.739Z,101587.00
2022-08-29T06:34:05.002Z,101589.00
2022-08-29T06:36:32.748Z,101594.00
2022-08-29T06:39:04.026Z,101596.00
2022-08-29T06:41:30.976Z,101613.00
2022-08-29T06:43:57.912Z,101607.00
2022-08-29T06:46:27.434Z,101608.00
2022-08-29T06:48:55.233Z,101621.00
2022-08-29T06:51:22.559Z,101601.00
2022-08-29T06:53:52.000Z,101608.00
2022-08-29T06:56:19.288Z,101618.00
2022-08-29T06:58:47.566Z,101625.00
2022-08-29T07:01:17.314Z,101625.00
2022-08-29T07:03:45.805Z,101624.00
2022-08-29T07:06:13.231Z,101629.00
2022-08-29T07:08:46.737Z,101613.00
2022-08-29T07:11:27.140Z,101628.00
2022-08-29T07:13:57.078Z,101638.00
2022-08-29T07:16:24.036Z,101638.00
2022-08-29T07:18:53.440Z,101635.00
2022-08-29T07:21:21.979Z,101642.00
2022-08-29T07:23:50.570Z,101646.00
2022-08-29T07:26:21.361Z,101650.00
2022-08-29T07:28:50.246Z,101642.00
2022-08-29T07:31:17.686Z,101649.00
2022-08-29T07:33:44.754Z,101642.00
2022-08-29T07:36:12.259Z,101657.00
2022-08-29T07:38:39.519Z,101655.00
2022-08-29T07:41:15.978Z,101651.00
2022-08-29T07:43:43.637Z,101664.00
2022-08-29T07:46:13.361Z,101671.00
2022-08-29T07:48:41.000Z,101667.00
2022-08-29T07:51:10.822Z,101670.00
2022-08-29T07:53:38.138Z,101668.00
2022-08-29T07:56:07.554Z,101678.00
2022-08-29T07:58:34.511Z,101687.00
2022-08-29T08:01:01.446Z,101677.00
2022-08-29T08:03:28.717Z,101685.00
2022-08-29T08:05:55.755Z,101675.00
2022-08-29T08:08:22.681Z,101689.00
2022-08-29T08:10:52.152Z,101688.00
2022-08-29T08:13:19.350Z,101684.00
2022-08-29T08:15:46.307Z,101690.00
2022-08-29T08:18:16.444Z,101688.00
2022-08-29T08:20:48.477Z,101685.00
2022-08-29T08:23:16.927Z,101695.00
2022-08-29T08:25:44.556Z,101683.00
2022-08-29T08:28:15.189Z,101678.00
2022-08-29T08:30:42.630Z,101697.00
2022-08-29T08:33:10.074Z,101701.00
2022-08-29T08:35:41.963Z,101700.00
2022-08-29T08:38:09.379Z,101705.00
2022-08-29T08:40:45.375Z,101698.00
2022-08-29T08:43:15.628Z,101708.00
2022-08-29T08:45:53.880Z,101707.00
2022-08-29T08:48:26.046Z,101729.00
2022-08-29T08:51:15.366Z,101723.00
2022-08-29T08:53:49.263Z,101739.00
2022-08-29T08:56:37.690Z,101730.00
2022-08-29T08:59:16.258Z,101725.00
2022-08-29T09:01:56.375Z,101737.00
2022-08-29T09:04:37.316Z,101734.00
2022-08-29T09:07:16.229Z,101720.00
2022-08-29T09:10:04.821Z,101727.00
2022-08-29T09:12:56.800Z,101745.00
2022-08-29T09:15:32.843Z,101730.00
2022-08-29T09:18:05.488Z,101738.00
2022-08-29T09:20:36.743Z,101759.00
2022-08-29T09:23:25.751Z,101738.00
2022-08-29T09:25:52.627Z,101729.00
2022-08-29T09:28:20.051Z,101733.00
2022-08-29T09:31:24.421Z,101722.00
2022-08-29T09:33:58.206Z,101715.00
2022-08-29T09:36:51.898Z,101729.00
2022-08-29T09:39:31.268Z,101724.00
2022-08-29T09:42:12.765Z,101726.00
2022-08-29T09:44:41.457Z,101726.00
2022-08-29T09:47:17.195Z,101717.00
2022-08-29T09:50:04.077Z,101720.00
2022-08-29T09:52:32.785Z,101717.00
2022-08-29T09:55:36.549Z,101738.00
2022-08-29T09:58:16.629Z,101738.00
2022-08-29T10:00:58.498Z,101748.00
2022-08-29T10:03:26.365Z,101740.00
2022-08-29T10:06:15.817Z,101751.00
2022-08-29T10:08:54.541Z,101753.00
2022-08-29T10:11:28.330Z,101753.00
2022-08-29T10:13:58.975Z,101748.00
2022-08-29T10:16:56.888Z,101737.00
2022-08-29T10:19:32.975Z,101742.00
2022-08-29T10:22:17.914Z,101754.00
2022-08-29T10:25:16.512Z,101751.00
2022-08-29T10:27:58.554Z,101757.00
2022-08-29T10:30:44.689Z,101754.00
2022-08-29T10:33:36.143Z,101754.00
2022-08-29T10:36:23.947Z,101767.00
2022-08-29T10:39:12.362Z,101769.00
2022-08-29T10:41:46.006Z,101766.00
2022-08-29T10:44:28.400Z,101770.00
2022-08-29T10:47:04.296Z,101772.00
2022-08-29T10:49:34.007Z,101771.00
2022-08-29T10:52:29.097Z,101772.00
2022-08-29T10:55:33.163Z,101773.00
2022-08-29T10:58:22.997Z,101780.00
2022-08-29T11:00:55.852Z,101774.00
2022-08-29T11:03:40.328Z,101789.00
2022-08-29T11:06:59.856Z,101803.00
2022-08-29T11:09:43.797Z,101797.00
2022-08-29T11:12:45.085Z,101791.00
2022-08-29T11:15:39.161Z,101810.00
2022-08-29T11:18:24.375Z,101802.00
2022-08-29T11:20:56.626Z,101785.00
2022-08-29T11:23:58.192Z,101793.00
2022-08-29T11:26:44.662Z,101795.00
2022-08-29T11:29:34.748Z,101787.00
2022-08-29T11:32:01.523Z,101798.00
2022-08-29T11:34:46.484Z,101805.00
2022-08-29T11:37:25.643Z,101809.00
2022-08-29T11:39:52.424Z,101808.00
2022-08-29T11:45:13.113Z,101825.00
2022-08-29T11:47:47.228Z,101837.00
2022-08-29T11:50:17.119Z,101828.00
2022-08-29T11:53:03.273Z,101822.00
2022-08-29T11:55:39.480Z,101831.00
2022-08-29T11:58:27.980Z,101812.00
2022-08-29T12:00:57.539Z,101822.00
2022-08-29T12:03:34.481Z,101816.00
2022-08-29T12:06:26.375Z,101811.00
2022-08-29T12:09:13.669Z,101818.00
2022-08-29T12:12:02.617Z,101819.00
2022-08-29T12:14:37.697Z,101824.00
2022-08-29T12:17:08.145Z,101818.00
2022-08-29T12:19:53.975Z,101818.00
2022-08-29T12:22:51.833Z,101818.00
2022-08-29T12:25:28.116Z,101819.00
2022-08-29T12:28:01.271Z,101813.00
2022-08-29T12:30:31.611Z,101810.00
2022-08-29T12:33:36.198Z,101816.00
2022-08-29T12:36:52.507Z,101842.00
2022-08-29T12:39:53.022Z,101844.00
2022-08-29T12:42:38.697Z,101846.00
2022-08-29T12:45:12.827Z,101854.00
2022-08-29T12:47:46.086Z,101843.00
2022-08-29T12:50:30.426Z,101834.00
2022-08-29T12:53:02.599Z,101848.00
2022-08-29T12:55:35.538Z,101844.00
2022-08-29T12:58:02.712Z,101834.00
2022-08-29T13:00:31.886Z,101856.00
2022-08-29T13:03:15.027Z,101858.00
2022-08-29T13:05:43.810Z,101861.00
2022-08-29T13:08:14.438Z,101865.00
2022-08-29T13:10:53.467Z,101855.00
2022-08-29T13:13:22.498Z,101864.00
2022-08-29T13:15:54.106Z,101863.00
2022-08-29T13:18:22.028Z,101862.00
2022-08-29T13:21:14.003Z,101853.00
2022-08-29T13:23:45.977Z,101858.00
2022-08-29T13:26:14.220Z,101859.00
2022-08-29T13:28:53.349Z,101869.00
2022-08-29T13:31:21.421Z,101860.00
2022-08-29T13:33:51.349Z,101862.00
2022-08-29T13:36:27.414Z,101846.00
2022-08-29T13:39:21.829Z,101870.00
2022-08-29T13:41:51.525Z,101855.00
2022-08-29T13:44:26.205Z,101849.00
2022-08-29T13:46:54.488Z,101855.00
2022-08-29T13:49:25.983Z,101831.00
2022-08-29T13:51:52.972Z,101839.00
2022-08-29T13:54:20.420Z,101844.00
2022-08-29T13:56:49.109Z,101844.00
2022-08-29T13:59:25.983Z,101855.00
2022-08-29T14:02:10.455Z,101848.00
2022-08-29T14:04:40.341Z,101848.00
2022-08-29T14:07:09.464Z,101844.00
2022-08-29T14:09:44.488Z,101851.00
2022-08-29T14:12:12.688Z,101850.00
2022-08-29T14:14:40.221Z,101869.00
2022-08-29T14:17:07.319Z,101861.00
2022-08-29T14:19:35.263Z,101896.00
2022-08-29T14:22:02.813Z,101881.00
2022-08-29T14:24:30.984Z,101879.00
2022-08-29T14:27:01.576Z,101891.00
2022-08-29T14:29:30.814Z,101901.00
2022-08-29T14:31:58.762Z,101911.00
2022-08-29T14:34:30.759Z,101902.00
2022-08-29T14:36:59.703Z,101904.00
2022-08-29T14:39:26.702Z,101905.00
2022-08-29T14:41:54.734Z,101896.00
2022-08-29T14:44:22.276Z,101910.00
2022-08-29T14:46:49.861Z,101883.00
2022-08-29T14:49:17.253Z,101881.00
2022-08-29T14:51:46.905Z,101897.00
2022-08-29T14:54:13.790Z,101897.00
2022-08-29T14:56:48.686Z,101885.00
2022-08-29T14:59:17.083Z,101879.00
2022-08-29T15:01:44.010Z,101873.00
2022-08-29T15:04:11.048Z,101856.00
2022-08-29T15:06:38.505Z,101856.00
2022-08-29T15:09:05.525Z,101853.00
2022-08-29T15:11:33.424Z,101877.00
2022-08-29T15:14:04.439Z,101869.00
2022-08-29T15:16:32.231Z,101850.00
2022-08-29T15:19:53.275Z,101839.00
2022-08-29T15:21:46.485Z,101842.00
2022-08-29T15:24:13.301Z,101849.00
2022-08-29T15:26:40.205Z,101843.00
2022-08-29T15:29:08.896Z,101841.00
2022-08-29T15:31:35.876Z,101858.00
2022-08-29T15:34:02.759Z,101863.00
2022-08-29T15:36:29.715Z,101863.00
2022-08-29T15:38:56.542Z,101855.00
2022-08-29T15:41:23.368Z,101870.00
2022-08-29T15:43:50.226Z,101860.00
2022-08-29T15:46:17.119Z,101872.00
2022-08-29T15:48:45.645Z,101877.00
2022-08-29T15:51:13.741Z,101875.00
2022-08-29T15:53:40.699Z,101865.00
2022-08-29T15:56:07.985Z,101858.00
2022-08-29T15:58:34.912Z,101863.00
2022-08-29T16:01:02.930Z,101856.00
2022-08-29T16:03:29.783Z,101851.00
2022-08-29T16:05:57.153Z,101870.00
2022-08-29T16:08:29.623Z,101857.00
2022-08-29T16:10:56.950Z,101870.00
2022-08-29T16:13:23.824Z,101865.00
2022-08-29T16:15:51.090Z,101875.00
2022-08-29T16:18:18.638Z,101879.00
2022-08-29T16:20:45.426Z,101870.00
2022-08-29T16:23:12.305Z,101869.00
2022-08-29T16:25:39.626Z,101863.00
2022-08-29T16:28:06.483Z,101874.00
2022-08-29T16:30:33.624Z,101878.00
2022-08-29T16:33:01.569Z,101877.00
2022-08-29T16:35:28.485Z,101875.00
2022-08-29T16:38:02.612Z,101877.00
2022-08-29T16:40:30.494Z,101888.00
2022-08-29T16:42:57.444Z,101901.00
2022-08-29T16:45:24.313Z,101905.00
2022-08-29T16:47:55.296Z,101907.00
2022-08-29T16:50:24.688Z,101886.00
2022-08-29T16:52:51.666Z,101896.00
2022-08-29T16:55:18.490Z,101894.00
2022-08-29T16:58:05.256Z,101889.00
2022-08-29T17:00:32.303Z,101883.00
2022-08-29T17:02:59.679Z,101909.00
2022-08-29T17:05:27.190Z,101909.00
2022-08-29T17:07:53.941Z,101894.00
2022-08-29T17:10:20.729Z,101917.00
2022-08-29T17:12:47.485Z,101897.00
2022-08-29T17:15:14.305Z,101881.00
2022-08-29T17:17:41.142Z,101890.00
2022-08-29T17:20:08.517Z,101899.00
2022-08-29T17:22:35.548Z,101879.00
2022-08-29T17:25:02.374Z,101894.00
2022-08-29T17:27:30.197Z,101888.00
2022-08-29T17:29:57.240Z,101893.00
2022-08-29T17:32:24.150Z,101897.00
2022-08-29T17:34:51.105Z,101909.00
2022-08-29T17:37:17.897Z,101900.00
2022-08-29T17:39:47.838Z,101898.00
2022-08-29T17:42:14.699Z,101900.00
2022-08-29T17:44:41.812Z,101908.00
2022-08-29T17:47:08.624Z,101901.00
2022-08-29T17:49:35.407Z,101904.00
2022-08-29T17:52:02.541Z,101890.00
2022-08-29T17:54:29.478Z,101873.00
2022-08-29T17:56:58.786Z,101879.00
2022-08-29T17:59:28.411Z,101863.00
2022-08-29T18:01:55.633Z,101861.00
2022-08-29T18:04:22.775Z,101862.00
2022-08-29T18:06:51.785Z,101861.00
2022-08-29T18:09:19.588Z,101853.00
2022-08-29T18:11:47.656Z,101861.00
2022-08-29T18:14:14.675Z,101869.00
2022-08-29T18:16:41.738Z,101858.00
2022-08-29T18:19:08.942Z,101864.00
2022-08-29T18:21:35.887Z,101856.00
2022-08-29T18:24:03.408Z,101853.00
2022-08-29T18:26:30.281Z,101864.00
2022-08-29T18:28:57.603Z,101869.00
2022-08-29T18:31:24.500Z,101865.00
2022-08-29T18:34:06.693Z,101853.00
2022-08-29T18:36:36.010Z,101854.00
2022-08-29T18:42:36.862Z,101851.00
2022-08-29T18:45:07.867Z,101853.00
2022-08-29T18:47:35.365Z,101838.00
2022-08-29T18:50:24.939Z,101859.00
2022-08-29T18:52:53.162Z,101858.00
2022-08-29T18:55:20.560Z,101862.00
2022-08-29T18:57:48.343Z,101857.00
2022-08-29T19:00:16.395Z,101859.00
2022-08-29T19:02:43.482Z,101864.00
2022-08-29T19:05:13.143Z,101870.00
2022-08-29T19:07:40.011Z,101871.00
2022-08-29T19:10:11.122Z,101874.00
2022-08-29T19:12:38.252Z,101857.00
2022-08-29T19:15:10.164Z,101862.00
2022-08-29T19:17:38.293Z,101869.00
2022-08-29T19:20:27.659Z,101863.00
2022-08-29T19:22:54.746Z,101886.00
2022-08-29T19:25:21.991Z,101886.00
2022-08-29T19:27:48.887Z,101877.00
2022-08-29T19:30:17.700Z,101885.00
2022-08-29T19:32:44.550Z,101882.00
2022-08-29T19:35:12.899Z,101879.00
2022-08-29T19:37:43.895Z,101876.00
2022-08-29T19:40:12.579Z,101870.00
2022-08-29T19:42:39.501Z,101871.00
2022-08-29T19:45:10.851Z,101864.00
2022-08-29T19:47:38.136Z,101865.00
2022-08-29T19:50:07.530Z,101871.00
2022-08-29T19:52:34.746Z,101880.00
2022-08-29T19:55:09.029Z,101863.00
2022-08-29T19:57:36.339Z,101874.00
2022-08-29T20:00:13.952Z,101857.00
2022-08-29T20:02:43.402Z,101845.00
2022-08-29T20:05:13.786Z,101853.00
2022-08-29T20:07:41.826Z,101856.00
2022-08-29T20:10:21.118Z,101843.00
2022-08-29T20:12:54.377Z,101847.00
2022-08-29T20:15:22.836Z,101844.00
2022-08-29T20:18:06.067Z,101846.00
2022-08-29T20:20:35.938Z,101853.00
2022-08-29T20:23:04.444Z,101849.00
2022-08-29T20:25:32.474Z,101851.00
2022-08-29T20:27:59.426Z,101858.00
2022-08-29T20:30:28.925Z,101859.00
2022-08-29T20:32:56.090Z,101853.00
2022-08-29T20:35:42.688Z,101849.00
2022-08-29T20:38:10.716Z,101858.00
2022-08-29T20:40:39.616Z,101856.00
2022-08-29T20:43:07.111Z,101851.00
2022-08-29T20:45:34.528Z,101854.00
2022-08-29T20:48:02.077Z,101870.00
2022-08-29T20:52:55.757Z,101872.00
2022-08-29T20:55:23.146Z,101864.00
2022-08-29T20:57:50.327Z,101879.00
2022-08-29T21:00:19.772Z,101855.00
2022-08-29T21:03:06.427Z,101862.00
2022-08-29T21:05:59.760Z,101864.00
2022-08-29T21:08:26.728Z,101856.00
2022-08-29T21:10:55.195Z,101856.00
2022-08-29T21:13:22.645Z,101854.00
2022-08-29T21:15:50.345Z,101861.00
2022-08-29T21:18:19.042Z,101848.00
2022-08-29T21:20:53.834Z,101859.00
2022-08-29T21:23:22.840Z,101850.00
2022-08-29T21:25:58.043Z,101864.00
2022-08-29T21:28:25.526Z,101853.00
2022-08-29T21:30:53.196Z,101858.00
2022-08-29T21:33:20.817Z,101862.00
2022-08-29T21:35:50.068Z,101853.00
2022-08-29T21:38:17.698Z,101861.00
2022-08-29T21:40:51.157Z,101854.00
2022-08-29T21:43:19.805Z,101869.00
2022-08-29T21:45:47.445Z,101860.00
2022-08-29T21:48:14.390Z,101860.00
2022-08-29T21:50:41.465Z,101855.00
2022-08-29T21:53:10.963Z,101853.00
2022-08-29T21:55:37.798Z,101851.00
2022-08-29T21:58:04.696Z,101858.00
2022-08-29T22:00:35.352Z,101863.00
2022-08-29T22:03:05.364Z,101856.00
2022-08-29T22:05:33.711Z,101858.00
2022-08-29T22:08:03.138Z,101870.00
2022-08-29T22:10:33.215Z,101852.00
2022-08-29T22:13:00.668Z,101859.00
2022-08-29T22:15:46.040Z,101849.00
2022-08-29T22:18:15.951Z,101848.00
2022-08-29T22:20:44.055Z,101850.00
2022-08-29T22:23:11.059Z,101853.00
2022-08-29T22:25:37.911Z,101846.00
2022-08-29T22:28:05.112Z,101848.00
2022-08-29T22:30:33.106Z,101846.00
2022-08-29T22:33:01.154Z,101852.00
2022-08-29T22:35:28.831Z,101855.00
2022-08-29T22:37:55.744Z,101841.00
2022-08-29T22:40:23.030Z,101837.00
2022-08-29T22:42:49.983Z,101838.00
2022-08-29T22:45:18.056Z,101832.00
2022-08-29T22:47:46.654Z,101828.00
2022-08-29T22:50:16.750Z,101822.00
2022-08-29T22:52:43.690Z,101827.00
2022-08-29T22:55:13.504Z,101829.00
2022-08-29T22:57:42.687Z,101837.00
2022-08-29T23:00:11.105Z,101840.00
2022-08-29T23:02:38.553Z,101854.00
2022-08-29T23:05:09.577Z,101846.00
2022-08-29T23:07:37.033Z,101844.00
2022-08-29T23:10:06.314Z,101837.00
2022-08-29T23:12:36.045Z,101843.00
2022-08-29T23:15:09.362Z,101835.00
2022-08-29T23:17:36.541Z,101848.00
2022-08-29T23:20:05.213Z,101843.00
2022-08-29T23:22:32.009Z,101845.00
2022-08-29T23:24:59.244Z,101838.00
2022-08-29T23:27:30.588Z,101834.00
2022-08-29T23:29:58.572Z,101831.00
2022-08-29T23:32:25.747Z,101835.00
2022-08-29T23:34:52.723Z,101833.00
2022-08-29T23:37:19.579Z,101840.00
2022-08-29T23:39:46.756Z,101843.00
2022-08-29T23:42:13.590Z,101845.00
2022-08-29T23:44:40.440Z,101840.00
2022-08-29T23:47:08.562Z,101840.00
2022-08-29T23:49:35.690Z,101842.00
2022-08-29T23:52:03.422Z,101841.00
2022-08-29T23:54:31.431Z,101836.00
2022-08-29T23:56:58.288Z,101854.00
2022-08-29T23:59:43.669Z,101843.00
